createdAt,value
2024-03-05T00:01:10.417Z,13.93
2024-03-05T00:03:37.479Z,15.45
2024-03-05T00:08:50.418Z,13.75
2024-03-05T00:11:17.620Z,14.45
2024-03-05T00:13:44.715Z,13.82
2024-03-05T00:16:11.713Z,13.93
2024-03-05T00:18:38.730Z,14.82
2024-03-05T00:21:07.829Z,14.40
2024-03-05T00:23:34.848Z,15.13
2024-03-05T00:26:01.817Z,15.48
2024-03-05T00:28:29.185Z,16.42
2024-03-05T00:30:56.228Z,14.38
2024-03-05T00:33:23.173Z,15.05
2024-03-05T00:35:50.309Z,14.65
2024-03-05T00:38:25.121Z,16.35
2024-03-05T00:40:59.895Z,15.27
2024-03-05T00:43:27.011Z,16.50
2024-03-05T00:45:54.161Z,16.42
2024-03-05T00:48:21.182Z,16.38
2024-03-05T00:50:48.204Z,15.93
2024-03-05T00:53:15.296Z,16.77
2024-03-05T00:55:43.851Z,15.52
2024-03-05T00:58:10.946Z,16.88
2024-03-05T01:00:38.034Z,16.98
2024-03-05T01:03:05.612Z,16.80
2024-03-05T01:05:32.676Z,16.27
2024-03-05T01:07:59.736Z,18.00
2024-03-05T01:10:26.894Z,18.67
2024-03-05T01:12:55.349Z,16.55
2024-03-05T01:15:22.382Z,17.33
2024-03-05T01:17:49.428Z,16.73
2024-03-05T01:20:16.994Z,16.52
2024-03-05T01:22:44.404Z,15.90
2024-03-05T01:25:11.643Z,17.10
2024-03-05T01:27:38.988Z,17.13
2024-03-05T01:30:09.761Z,17.80
2024-03-05T01:32:36.902Z,15.88
2024-03-05T01:35:04.303Z,16.48
2024-03-05T01:37:31.400Z,16.48
2024-03-05T01:39:58.443Z,15.65
2024-03-05T01:42:25.389Z,15.45
2024-03-05T01:44:52.568Z,16.23
2024-03-05T01:47:21.010Z,15.90
2024-03-05T01:49:48.022Z,17.15
2024-03-05T01:52:15.524Z,17.05
2024-03-05T01:54:43.621Z,17.20
2024-03-05T01:57:10.695Z,15.07
2024-03-05T01:59:39.470Z,14.13
2024-03-05T02:02:07.125Z,16.25
2024-03-05T02:04:38.012Z,15.38
2024-03-05T02:07:07.242Z,17.23
2024-03-05T02:09:34.310Z,16.15
2024-03-05T02:12:04.163Z,16.38
2024-03-05T02:14:31.968Z,17.10
2024-03-05T02:17:00.778Z,17.23
2024-03-05T02:19:28.016Z,17.50
2024-03-05T02:21:59.599Z,18.27
2024-03-05T02:24:26.546Z,18.33
2024-03-05T02:26:53.519Z,18.42
2024-03-05T02:29:21.101Z,20.38
2024-03-05T02:31:48.734Z,19.33
2024-03-05T02:34:16.039Z,17.85
2024-03-05T02:36:43.097Z,20.65
2024-03-05T02:39:11.521Z,20.88
2024-03-05T02:41:38.502Z,20.15
2024-03-05T02:44:05.720Z,20.33
2024-03-05T02:46:32.799Z,18.52
2024-03-05T02:48:59.852Z,17.30
2024-03-05T02:51:26.932Z,19.50
2024-03-05T02:53:53.979Z,18.80
2024-03-05T02:56:22.336Z,17.95
2024-03-05T02:58:49.365Z,17.30
2024-03-05T03:01:16.448Z,16.60
2024-03-05T03:03:43.526Z,16.50
2024-03-05T03:06:16.468Z,17.35
2024-03-05T03:08:43.511Z,17.52
2024-03-05T03:11:15.912Z,16.60
2024-03-05T03:13:45.596Z,18.00
2024-03-05T03:16:12.869Z,17.67
2024-03-05T03:18:39.830Z,16.55
2024-03-05T03:21:06.804Z,18.00
2024-03-05T03:23:34.099Z,19.65
2024-03-05T03:28:47.000Z,17.98
2024-03-05T03:31:14.153Z,17.63
2024-03-05T03:36:25.827Z,17.42
2024-03-05T03:38:53.062Z,17.02
2024-03-05T03:44:05.984Z,16.05
2024-03-05T03:46:33.044Z,16.48
2024-03-05T03:49:00.033Z,14.40
2024-03-05T03:51:27.061Z,14.63
2024-03-05T03:53:54.043Z,14.20
2024-03-05T03:56:21.106Z,14.77
2024-03-05T03:58:48.163Z,15.63
2024-03-05T04:01:16.789Z,16.20
2024-03-05T04:03:43.914Z,16.13
2024-03-05T04:06:10.959Z,16.45
2024-03-05T04:08:37.933Z,15.82
2024-03-05T04:11:05.148Z,14.52
2024-03-05T04:16:18.376Z,14.35
2024-03-05T04:18:45.386Z,14.27
2024-03-05T04:21:12.535Z,14.98
2024-03-05T04:23:40.349Z,13.95
2024-03-05T04:26:07.308Z,14.00
2024-03-05T04:28:44.805Z,14.15
2024-03-05T04:31:11.841Z,13.50
2024-03-05T04:33:40.235Z,12.38
2024-03-05T04:36:07.719Z,12.05
2024-03-05T04:38:34.659Z,11.32
2024-03-05T04:41:01.734Z,11.73
2024-03-05T04:43:28.740Z,13.45
2024-03-05T04:45:55.726Z,12.40
2024-03-05T04:48:22.734Z,12.70
2024-03-05T04:50:52.019Z,13.40
2024-03-05T04:53:19.129Z,11.68
2024-03-05T04:55:46.167Z,13.15
2024-03-05T05:00:57.720Z,12.98
2024-03-05T05:03:24.847Z,12.73
2024-03-05T05:05:53.226Z,11.65
2024-03-05T05:08:20.931Z,12.20
2024-03-05T05:10:48.090Z,11.73
2024-03-05T05:13:15.261Z,12.32
2024-03-05T05:15:42.531Z,11.80
2024-03-05T05:18:09.709Z,12.15
2024-03-05T05:20:36.702Z,10.48
2024-03-05T05:23:05.370Z,11.18
2024-03-05T05:25:32.782Z,11.25
2024-03-05T05:27:59.852Z,11.15
2024-03-05T05:30:26.782Z,11.45
2024-03-05T05:32:53.915Z,12.38
2024-03-05T05:35:21.030Z,11.70
2024-03-05T05:37:48.113Z,12.50
2024-03-05T05:40:19.713Z,12.63
2024-03-05T05:42:49.313Z,12.70
2024-03-05T05:45:16.341Z,12.35
2024-03-05T05:47:44.421Z,11.43
2024-03-05T05:50:11.494Z,11.68
2024-03-05T05:52:38.557Z,11.68
2024-03-05T05:55:05.905Z,11.90
2024-03-05T06:00:20.605Z,11.75
2024-03-05T06:02:47.692Z,11.27
2024-03-05T06:05:14.896Z,11.55
2024-03-05T06:07:41.902Z,12.80
2024-03-05T06:10:09.958Z,12.65
2024-03-05T06:12:38.688Z,14.40
2024-03-05T06:15:06.269Z,14.68
2024-03-05T06:17:33.349Z,14.57
2024-03-05T06:20:00.597Z,14.13
2024-03-05T06:22:33.881Z,14.65
2024-03-05T06:25:01.850Z,14.18
2024-03-05T06:27:28.795Z,14.13
2024-03-05T06:29:57.185Z,13.98
2024-03-05T06:32:24.212Z,14.15
2024-03-05T06:34:51.382Z,14.35
2024-03-05T06:37:18.503Z,14.13
2024-03-05T06:39:45.496Z,13.70
2024-03-05T06:42:12.457Z,14.85
2024-03-05T06:44:39.429Z,14.45
2024-03-05T06:47:08.226Z,14.05
2024-03-05T06:49:36.501Z,12.80
2024-03-05T06:52:03.782Z,12.52
2024-03-05T06:54:30.944Z,12.13
2024-03-05T06:56:57.888Z,13.48
2024-03-05T06:59:24.850Z,13.48
2024-03-05T07:01:51.809Z,14.23
2024-03-05T07:04:20.274Z,14.50
2024-03-05T07:06:47.222Z,13.82
2024-03-05T07:09:14.277Z,14.85
2024-03-05T07:11:41.251Z,15.57
2024-03-05T07:14:08.326Z,16.30
2024-03-05T07:16:35.297Z,15.75
2024-03-05T07:21:47.865Z,14.73
2024-03-05T07:24:14.774Z,17.17
2024-03-05T07:26:49.538Z,17.92
2024-03-05T07:29:19.920Z,16.27
2024-03-05T07:31:46.930Z,17.05
2024-03-05T07:34:13.974Z,18.63
2024-03-05T07:36:40.949Z,19.10
2024-03-05T07:39:09.445Z,16.90
2024-03-05T07:41:36.570Z,17.80
2024-03-05T07:44:05.064Z,18.25
2024-03-05T07:46:33.014Z,17.52
2024-03-05T07:49:00.034Z,18.30
2024-03-05T07:51:29.346Z,18.83
2024-03-05T07:54:00.591Z,16.67
2024-03-05T07:56:29.002Z,17.25
2024-03-05T07:59:14.880Z,18.10
2024-03-05T08:01:42.134Z,15.30
2024-03-05T08:04:09.620Z,17.50
2024-03-05T08:06:36.567Z,17.13
2024-03-05T08:09:03.643Z,16.35
2024-03-05T08:11:32.108Z,15.57
2024-03-05T08:13:59.280Z,15.75
2024-03-05T08:16:26.348Z,17.45
2024-03-05T08:18:53.343Z,16.38
2024-03-05T08:21:20.296Z,15.82
2024-03-05T08:23:47.234Z,14.63
2024-03-05T08:26:14.264Z,14.73
2024-03-05T08:28:42.716Z,14.70
2024-03-05T08:31:09.738Z,23.77
2024-03-05T08:33:36.785Z,24.52
2024-03-05T08:36:04.202Z,25.02
2024-03-05T08:38:31.233Z,21.70
2024-03-05T08:40:58.279Z,18.98
2024-03-05T08:43:25.375Z,20.75
2024-03-05T08:45:53.852Z,20.40
2024-03-05T08:48:20.906Z,17.70
2024-03-05T08:50:48.001Z,16.85
2024-03-05T08:53:14.991Z,16.52
2024-03-05T08:55:45.271Z,18.25
2024-03-05T08:58:12.346Z,19.38
2024-03-05T09:00:43.188Z,16.85
2024-03-05T09:03:12.455Z,17.10
2024-03-05T09:08:23.612Z,18.95
2024-03-05T09:10:50.830Z,18.58
2024-03-05T09:13:17.926Z,19.58
2024-03-05T09:15:45.175Z,18.38
2024-03-05T09:18:14.286Z,18.80
2024-03-05T09:20:42.690Z,20.15
2024-03-05T09:23:09.746Z,19.48
2024-03-05T09:25:36.861Z,20.20
2024-03-05T09:28:04.344Z,19.92
2024-03-05T09:30:31.329Z,17.65
2024-03-05T09:32:58.331Z,19.65
2024-03-05T09:35:26.890Z,19.48
2024-03-05T09:37:53.919Z,18.73
2024-03-05T09:40:22.309Z,16.63
2024-03-05T09:42:49.423Z,16.83
2024-03-05T09:45:18.372Z,16.98
2024-03-05T09:47:48.735Z,16.63
2024-03-05T09:50:18.686Z,16.50
2024-03-05T09:52:48.927Z,17.23
2024-03-05T09:55:16.724Z,16.20
2024-03-05T09:57:48.431Z,17.67
2024-03-05T10:00:16.122Z,16.17
2024-03-05T10:02:43.730Z,16.75
2024-03-05T10:05:11.499Z,16.23
2024-03-05T10:07:38.659Z,17.38
2024-03-05T10:10:09.150Z,16.08
2024-03-05T10:12:36.205Z,16.67
2024-03-05T10:15:12.873Z,15.07
2024-03-05T10:17:43.380Z,14.82
2024-03-05T10:20:11.216Z,17.27
2024-03-05T10:22:38.265Z,19.13
2024-03-05T10:25:16.004Z,15.23
2024-03-05T10:27:46.832Z,16.55
2024-03-05T10:33:09.600Z,17.25
2024-03-05T10:35:37.104Z,16.33
2024-03-05T10:38:05.854Z,17.10
2024-03-05T10:40:35.229Z,18.35
2024-03-05T10:43:03.643Z,16.75
2024-03-05T10:45:33.307Z,16.48
2024-03-05T10:48:01.390Z,17.75
2024-03-05T10:50:29.562Z,17.48
2024-03-05T10:52:58.013Z,17.02
2024-03-05T10:55:26.045Z,18.73
2024-03-05T10:57:55.091Z,17.83
2024-03-05T11:00:22.269Z,18.65
2024-03-05T11:02:49.297Z,17.50
2024-03-05T11:05:18.722Z,17.92
2024-03-05T11:07:46.272Z,17.63
2024-03-05T11:10:13.378Z,17.40
2024-03-05T11:12:40.967Z,18.10
2024-03-05T11:15:11.328Z,18.83
2024-03-05T11:17:38.381Z,16.73
2024-03-05T11:20:08.966Z,16.55
2024-03-05T11:22:36.080Z,17.45
2024-03-05T11:25:05.368Z,16.98
2024-03-05T11:27:34.645Z,17.67
2024-03-05T11:30:06.503Z,18.60
2024-03-05T11:35:20.958Z,16.83
2024-03-05T11:37:50.786Z,17.65
2024-03-05T11:40:19.519Z,17.15
2024-03-05T11:42:47.198Z,17.95
2024-03-05T11:45:47.479Z,17.15
2024-03-05T11:48:17.187Z,16.40
2024-03-05T11:50:45.866Z,17.92
2024-03-05T11:53:13.526Z,15.43
2024-03-05T11:55:41.057Z,16.70
2024-03-05T11:58:08.091Z,17.17
2024-03-05T12:00:35.419Z,17.33
2024-03-05T12:03:02.513Z,17.02
2024-03-05T12:05:31.340Z,16.67
2024-03-05T12:07:59.757Z,16.95
2024-03-05T12:10:28.183Z,16.52
2024-03-05T12:12:55.175Z,18.38
2024-03-05T12:15:22.243Z,17.08
2024-03-05T12:17:49.276Z,17.05
2024-03-05T12:20:20.758Z,17.17
2024-03-05T12:22:54.646Z,16.60
2024-03-05T12:25:22.805Z,16.92
2024-03-05T12:27:50.213Z,16.85
2024-03-05T12:30:17.852Z,17.85
2024-03-05T12:32:51.549Z,16.80
2024-03-05T12:35:18.667Z,16.63
2024-03-05T12:40:18.320Z,17.65
2024-03-05T12:42:45.708Z,17.70
2024-03-05T12:45:13.214Z,17.42
2024-03-05T12:47:40.262Z,16.75
2024-03-05T12:50:09.542Z,18.20
2024-03-05T12:52:37.142Z,18.27
2024-03-05T12:55:05.599Z,17.55
2024-03-05T12:57:35.482Z,17.42
2024-03-05T13:00:05.953Z,18.65
2024-03-05T13:02:33.370Z,19.60
2024-03-05T13:05:01.146Z,18.85
2024-03-05T13:07:28.586Z,17.92
2024-03-05T13:09:56.125Z,18.65
2024-03-05T13:12:23.152Z,19.80
2024-03-05T13:14:51.462Z,18.95
2024-03-05T13:17:18.611Z,19.58
2024-03-05T13:22:30.360Z,19.42
2024-03-05T13:24:57.369Z,19.42
2024-03-05T13:27:24.307Z,20.88
2024-03-05T13:30:01.367Z,23.15
2024-03-05T13:32:36.635Z,21.73
2024-03-05T13:35:03.998Z,24.13
2024-03-05T13:37:31.124Z,22.48
2024-03-05T13:39:58.124Z,23.88
2024-03-05T13:42:25.135Z,23.45
2024-03-05T13:44:53.463Z,24.30
2024-03-05T13:47:20.442Z,23.92
2024-03-05T13:49:47.654Z,21.35
2024-03-05T13:52:14.704Z,20.23
2024-03-05T13:54:41.760Z,20.85
2024-03-05T13:57:08.746Z,22.42
2024-03-05T13:59:35.761Z,20.33
2024-03-05T14:02:04.502Z,20.15
2024-03-05T14:04:31.547Z,20.10
2024-03-05T14:06:58.540Z,19.27
2024-03-05T14:09:25.602Z,21.83
2024-03-05T14:11:52.584Z,22.83
2024-03-05T14:14:19.619Z,23.75
2024-03-05T14:16:46.665Z,23.73
2024-03-05T14:19:15.027Z,23.15
2024-03-05T14:21:42.172Z,24.38
2024-03-05T14:24:09.230Z,21.92
2024-03-05T14:26:36.298Z,21.10
2024-03-05T14:29:03.359Z,21.30
2024-03-05T14:31:30.657Z,20.48
2024-03-05T14:33:57.699Z,22.33
2024-03-05T14:36:26.178Z,22.05
2024-03-05T14:38:53.243Z,20.90
2024-03-05T14:41:20.277Z,20.75
2024-03-05T14:43:47.303Z,20.45
2024-03-05T14:46:14.328Z,21.65
2024-03-05T14:48:42.518Z,19.92
2024-03-05T14:53:55.617Z,18.70
2024-03-05T14:59:07.422Z,19.23
2024-03-05T15:01:35.299Z,21.33
2024-03-05T15:04:02.554Z,19.58
2024-03-05T15:06:29.621Z,20.05
2024-03-05T15:08:57.988Z,20.92
2024-03-05T15:11:25.197Z,19.83
2024-03-05T15:13:52.327Z,18.58
2024-03-05T15:16:19.295Z,18.95
2024-03-05T15:18:46.250Z,17.77
2024-03-05T15:21:13.231Z,18.83
2024-03-05T15:23:40.312Z,19.10
2024-03-05T15:26:09.107Z,19.98
2024-03-05T15:28:36.235Z,18.15
2024-03-05T15:31:03.435Z,18.58
2024-03-05T15:33:30.427Z,19.15
2024-03-05T15:35:57.427Z,18.73
2024-03-05T15:38:24.429Z,17.77
2024-03-05T15:40:51.515Z,18.58
2024-03-05T15:43:19.989Z,17.98
2024-03-05T15:45:47.080Z,18.95
2024-03-05T15:48:14.120Z,19.77
2024-03-05T15:50:41.132Z,18.13
2024-03-05T15:53:08.298Z,17.40
2024-03-05T15:55:35.296Z,16.63
2024-03-05T15:58:02.517Z,16.27
2024-03-05T16:00:33.810Z,17.55
2024-03-05T16:03:01.016Z,16.40
2024-03-05T16:05:33.612Z,16.80
2024-03-05T16:08:08.306Z,15.75
2024-03-05T16:10:41.915Z,14.80
2024-03-05T16:13:15.074Z,15.63
2024-03-05T16:15:43.587Z,14.73
2024-03-05T16:18:10.612Z,14.73
2024-03-05T16:20:37.706Z,13.95
2024-03-05T16:23:05.085Z,14.00
2024-03-05T16:25:32.698Z,14.07
2024-03-05T16:27:59.750Z,14.32
2024-03-05T16:30:27.912Z,15.27
2024-03-05T16:32:56.323Z,13.90
2024-03-05T16:35:24.636Z,13.85
2024-03-05T16:37:55.626Z,14.32
2024-03-05T16:40:24.331Z,12.95
2024-03-05T16:42:52.631Z,14.65
2024-03-05T16:45:20.595Z,14.43
2024-03-05T16:47:47.635Z,14.30
2024-03-05T16:50:16.107Z,14.80
2024-03-05T16:52:44.556Z,15.30
2024-03-05T16:55:12.237Z,15.95
2024-03-05T16:57:40.401Z,15.13
2024-03-05T17:00:08.743Z,16.20
2024-03-05T17:02:35.822Z,15.55
2024-03-05T17:05:03.434Z,16.38
2024-03-05T17:07:31.893Z,14.60
2024-03-05T17:09:59.563Z,15.45
2024-03-05T17:12:45.331Z,13.85
2024-03-05T17:15:12.461Z,13.43
2024-03-05T17:17:40.145Z,13.57
2024-03-05T17:20:09.772Z,14.40
2024-03-05T17:22:38.169Z,14.05
2024-03-05T17:25:05.994Z,13.88
2024-03-05T17:27:33.169Z,14.77
2024-03-05T17:30:00.321Z,14.82
2024-03-05T17:32:27.417Z,13.15
2024-03-05T17:34:54.465Z,13.00
2024-03-05T17:37:21.495Z,13.25
2024-03-05T17:39:49.889Z,13.63
2024-03-05T17:42:17.006Z,14.52
2024-03-05T17:44:44.916Z,13.45
2024-03-05T17:47:12.255Z,13.30
2024-03-05T17:49:39.689Z,14.52
2024-03-05T17:52:06.737Z,12.20
2024-03-05T17:54:33.754Z,11.52
2024-03-05T17:57:02.162Z,11.20
2024-03-05T17:59:29.137Z,11.73
2024-03-05T18:01:56.493Z,10.70
2024-03-05T18:04:23.687Z,11.32
2024-03-05T18:06:50.665Z,11.63
2024-03-05T18:09:17.995Z,11.40
2024-03-05T18:11:45.096Z,11.10
2024-03-05T18:14:13.803Z,10.43
2024-03-05T18:16:42.005Z,10.25
2024-03-05T18:19:09.279Z,9.75
2024-03-05T18:21:36.250Z,10.75
2024-03-05T18:24:03.482Z,11.30
2024-03-05T18:26:30.641Z,9.88
2024-03-05T18:28:57.760Z,10.68
2024-03-05T18:31:26.499Z,11.18
2024-03-05T18:33:53.598Z,11.48
2024-03-05T18:36:20.756Z,12.05
2024-03-05T18:38:47.819Z,12.00
2024-03-05T18:41:14.907Z,10.68
2024-03-05T18:43:42.030Z,11.05
2024-03-05T18:46:09.146Z,10.70
2024-03-05T18:48:37.598Z,10.45
2024-03-05T18:51:05.132Z,10.77
2024-03-05T18:53:39.614Z,9.60
2024-03-05T18:56:11.731Z,9.85
2024-03-05T18:58:38.887Z,9.90
2024-03-05T19:01:06.004Z,10.65
2024-03-05T19:03:33.192Z,11.50
2024-03-05T19:06:02.050Z,9.98
2024-03-05T19:08:29.087Z,9.43
2024-03-05T19:10:56.342Z,10.18
2024-03-05T19:13:23.388Z,10.73
2024-03-05T19:15:50.525Z,10.80
2024-03-05T19:18:17.541Z,10.73
2024-03-05T19:20:44.701Z,11.30
2024-03-05T19:23:13.270Z,10.75
2024-03-05T19:25:40.362Z,11.75
2024-03-05T19:28:07.486Z,10.05
2024-03-05T19:30:34.514Z,10.45
2024-03-05T19:33:04.791Z,11.35
2024-03-05T19:35:31.841Z,11.57
2024-03-05T19:40:45.578Z,10.13
2024-03-05T19:43:12.644Z,11.77
2024-03-05T19:45:58.053Z,10.25
2024-03-05T19:48:25.105Z,10.27
2024-03-05T19:50:52.196Z,11.50
2024-03-05T19:53:19.334Z,10.27
2024-03-05T19:55:47.844Z,11.35
2024-03-05T19:58:15.018Z,10.68
2024-03-05T20:00:42.011Z,11.63
2024-03-05T20:03:09.026Z,11.15
2024-03-05T20:05:36.058Z,10.65
2024-03-05T20:08:03.213Z,10.35
2024-03-05T20:10:30.384Z,9.95
2024-03-05T20:12:58.906Z,9.63
2024-03-05T20:15:25.964Z,10.68
2024-03-05T20:17:54.513Z,10.02
2024-03-05T20:20:21.570Z,11.48
2024-03-05T20:22:49.785Z,10.02
2024-03-05T20:25:20.156Z,9.85
2024-03-05T20:27:49.175Z,9.77
2024-03-05T20:30:18.005Z,7.72
2024-03-05T20:32:45.772Z,6.07
2024-03-05T20:35:14.289Z,5.57
2024-03-05T20:37:41.388Z,5.65
2024-03-05T20:40:09.772Z,6.53
2024-03-05T20:42:36.983Z,6.22
2024-03-05T20:45:04.487Z,5.60
2024-03-05T20:47:33.319Z,6.53
2024-03-05T20:50:00.483Z,6.22
2024-03-05T20:52:27.577Z,6.15
2024-03-05T20:54:54.593Z,5.70
2024-03-05T20:57:22.168Z,5.63
2024-03-05T20:59:49.292Z,5.60
2024-03-05T21:02:16.424Z,6.15
2024-03-05T21:04:44.897Z,6.25
2024-03-05T21:07:12.029Z,5.72
2024-03-05T21:09:39.064Z,5.45
2024-03-05T21:12:06.369Z,5.55
2024-03-05T21:14:33.368Z,4.40
2024-03-05T21:17:00.536Z,5.35
2024-03-05T21:19:27.728Z,4.05
2024-03-05T21:21:56.688Z,4.45
2024-03-05T21:24:23.767Z,4.80
2024-03-05T21:27:09.528Z,4.75
2024-03-05T21:29:37.889Z,6.18
2024-03-05T21:34:49.743Z,6.10
2024-03-05T21:37:18.178Z,6.32
2024-03-05T21:39:45.155Z,5.68
2024-03-05T21:42:12.240Z,5.70
2024-03-05T21:47:08.312Z,4.70
2024-03-05T21:49:35.595Z,5.25
2024-03-05T21:52:02.788Z,4.97
2024-03-05T21:54:31.326Z,4.18
2024-03-05T21:56:58.417Z,5.20
2024-03-05T21:59:25.553Z,5.07
2024-03-05T22:01:52.869Z,4.82
2024-03-05T22:04:19.844Z,5.30
2024-03-05T22:06:46.943Z,4.72
2024-03-05T22:09:13.944Z,4.95
2024-03-05T22:11:43.233Z,5.40
2024-03-05T22:14:11.835Z,4.65
2024-03-05T22:16:39.705Z,5.20
2024-03-05T22:19:08.006Z,5.07
2024-03-05T22:21:36.021Z,5.30
2024-03-05T22:24:06.563Z,5.80
2024-03-05T22:26:33.590Z,5.30
2024-03-05T22:29:02.564Z,4.93
2024-03-05T22:31:29.846Z,4.95
2024-03-05T22:33:57.001Z,5.10
2024-03-05T22:36:24.073Z,4.88
2024-03-05T22:38:51.203Z,5.15
2024-03-05T22:41:18.452Z,4.72
2024-03-05T22:43:45.669Z,4.85
2024-03-05T22:46:14.177Z,4.72
2024-03-05T22:48:41.610Z,5.05
2024-03-05T22:51:08.881Z,4.90
2024-03-05T22:53:36.007Z,5.20
2024-03-05T22:58:47.397Z,4.90
2024-03-05T23:01:15.911Z,4.25
2024-03-05T23:03:43.013Z,3.63
2024-03-05T23:06:15.667Z,3.08
2024-03-05T23:08:45.914Z,2.67
2024-03-05T23:11:13.110Z,2.35
2024-03-05T23:13:40.205Z,1.70
2024-03-05T23:16:07.495Z,2.00
2024-03-05T23:18:35.885Z,1.50
2024-03-05T23:21:02.889Z,1.67
2024-03-05T23:23:30.053Z,1.50
2024-03-05T23:25:57.052Z,1.60
2024-03-05T23:28:24.051Z,1.42
2024-03-05T23:30:51.035Z,1.40
2024-03-05T23:33:18.078Z,1.10
2024-03-05T23:35:46.709Z,1.20
2024-03-05T23:38:13.889Z,0.93
2024-03-05T23:40:40.997Z,1.10
2024-03-05T23:43:08.041Z,1.23
2024-03-05T23:45:35.046Z,1.00
2024-03-05T23:48:02.076Z,1.30
2024-03-05T23:53:15.436Z,1.23
2024-03-05T23:55:42.541Z,1.27
2024-03-05T23:58:09.576Z,1.45
